sensor_id;sensor_type;location;lat;lon;timestamp;noise_LAeq;noise_LA_min;noise_LA_max;noise_LA01;noise_LA95
41704;Laerm;861;48.808;9.006;2022-12-05T00:01:37;35.31;34.01;36.46;;
41704;Laerm;861;48.808;9.006;2022-12-05T00:04:12;35.34;33.86;36.59;;
41704;Laerm;861;48.808;9.006;2022-12-05T00:06:42;35.40;34.10;36.66;;
41704;Laerm;861;48.808;9.006;2022-12-05T00:09:13;35.38;34.01;36.54;;
41704;Laerm;861;48.808;9.006;2022-12-05T00:11:44;35.38;34.12;36.56;;
41704;Laerm;861;48.808;9.006;2022-12-05T00:14:12;35.46;34.28;36.54;;
41704;Laerm;861;48.808;9.006;2022-12-05T00:16:43;35.40;34.11;36.58;;
41704;Laerm;861;48.808;9.006;2022-12-05T00:19:14;35.33;34.18;36.70;;
41704;Laerm;861;48.808;9.006;2022-12-05T00:21:42;35.39;34.20;36.57;;
41704;Laerm;861;48.808;9.006;2022-12-05T00:24:15;35.45;34.14;36.96;;
41704;Laerm;861;48.808;9.006;2022-12-05T00:26:42;35.47;34.11;36.66;;
41704;Laerm;861;48.808;9.006;2022-12-05T00:29:10;35.51;34.29;36.53;;
41704;Laerm;861;48.808;9.006;2022-12-05T00:31:36;35.46;34.16;36.79;;
41704;Laerm;861;48.808;9.006;2022-12-05T00:34:03;35.47;34.05;36.63;;
41704;Laerm;861;48.808;9.006;2022-12-05T00:36:35;35.50;34.23;37.22;;
41704;Laerm;861;48.808;9.006;2022-12-05T00:39:10;35.39;34.14;38.27;;
41704;Laerm;861;48.808;9.006;2022-12-05T00:41:37;35.44;34.22;36.52;;
41704;Laerm;861;48.808;9.006;2022-12-05T00:44:04;35.49;34.30;36.73;;
41704;Laerm;861;48.808;9.006;2022-12-05T00:46:34;35.50;34.27;36.61;;
41704;Laerm;861;48.808;9.006;2022-12-05T00:49:05;35.47;34.07;36.61;;
41704;Laerm;861;48.808;9.006;2022-12-05T00:51:39;35.52;34.34;36.62;;
41704;Laerm;861;48.808;9.006;2022-12-05T00:54:14;35.42;34.12;36.73;;
41704;Laerm;861;48.808;9.006;2022-12-05T00:56:43;35.43;34.06;36.68;;
41704;Laerm;861;48.808;9.006;2022-12-05T00:59:18;35.48;34.21;36.72;;
41704;Laerm;861;48.808;9.006;2022-12-05T01:01:48;35.48;34.03;36.81;;
41704;Laerm;861;48.808;9.006;2022-12-05T01:04:24;35.50;34.31;36.81;;
41704;Laerm;861;48.808;9.006;2022-12-05T01:06:56;35.39;34.18;36.59;;
41704;Laerm;861;48.808;9.006;2022-12-05T01:09:25;35.44;34.22;36.85;;
41704;Laerm;861;48.808;9.006;2022-12-05T01:11:52;35.50;34.25;36.79;;
41704;Laerm;861;48.808;9.006;2022-12-05T01:14:24;35.55;34.32;36.81;;
41704;Laerm;861;48.808;9.006;2022-12-05T01:16:54;35.60;34.41;36.72;;
41704;Laerm;861;48.808;9.006;2022-12-05T01:19:29;35.50;34.03;36.63;;
41704;Laerm;861;48.808;9.006;2022-12-05T01:21:57;35.48;34.17;36.58;;
41704;Laerm;861;48.808;9.006;2022-12-05T01:24:27;35.50;34.25;36.61;;
41704;Laerm;861;48.808;9.006;2022-12-05T01:26:57;35.53;34.35;36.62;;
41704;Laerm;861;48.808;9.006;2022-12-05T01:29:24;35.55;34.38;36.65;;
41704;Laerm;861;48.808;9.006;2022-12-05T01:31:52;35.51;34.26;36.71;;
41704;Laerm;861;48.808;9.006;2022-12-05T01:34:20;35.53;34.35;36.66;;
41704;Laerm;861;48.808;9.006;2022-12-05T01:36:47;35.53;34.19;36.69;;
41704;Laerm;861;48.808;9.006;2022-12-05T01:39:15;35.45;33.93;36.56;;
41704;Laerm;861;48.808;9.006;2022-12-05T01:41:48;35.51;34.18;37.35;;
41704;Laerm;861;48.808;9.006;2022-12-05T01:46:51;35.64;34.51;36.85;;
41704;Laerm;861;48.808;9.006;2022-12-05T01:49:32;35.51;34.41;36.81;;
41704;Laerm;861;48.808;9.006;2022-12-05T01:52:26;35.35;33.86;36.52;;
41704;Laerm;861;48.808;9.006;2022-12-05T01:55:09;35.32;33.90;36.36;;
41704;Laerm;861;48.808;9.006;2022-12-05T01:57:38;35.33;34.08;36.53;;
41704;Laerm;861;48.808;9.006;2022-12-05T02:00:18;35.36;33.99;36.51;;
41704;Laerm;861;48.808;9.006;2022-12-05T02:02:58;35.28;34.00;36.51;;
41704;Laerm;861;48.808;9.006;2022-12-05T02:05:35;35.25;33.95;36.38;;
41704;Laerm;861;48.808;9.006;2022-12-05T02:08:10;35.39;34.03;36.56;;
41704;Laerm;861;48.808;9.006;2022-12-05T02:10:51;35.42;34.21;36.49;;
41704;Laerm;861;48.808;9.006;2022-12-05T02:17:08;35.35;33.74;36.45;;
41704;Laerm;861;48.808;9.006;2022-12-05T02:26:57;35.35;33.91;36.59;;
41704;Laerm;861;48.808;9.006;2022-12-05T02:30:11;35.40;34.24;36.61;;
41704;Laerm;861;48.808;9.006;2022-12-05T02:33:45;35.44;34.22;36.60;;
41704;Laerm;861;48.808;9.006;2022-12-05T02:36:25;35.43;34.13;36.77;;
41704;Laerm;861;48.808;9.006;2022-12-05T02:39:31;35.49;34.22;36.73;;
41704;Laerm;861;48.808;9.006;2022-12-05T02:42:42;35.49;34.13;36.59;;
41704;Laerm;861;48.808;9.006;2022-12-05T02:45:19;35.56;34.30;36.83;;
41704;Laerm;861;48.808;9.006;2022-12-05T02:47:54;35.53;34.09;36.72;;
41704;Laerm;861;48.808;9.006;2022-12-05T02:50:35;35.52;34.05;36.63;;
41704;Laerm;861;48.808;9.006;2022-12-05T02:53:16;35.55;34.18;36.65;;
41704;Laerm;861;48.808;9.006;2022-12-05T02:55:46;35.58;34.31;36.67;;
41704;Laerm;861;48.808;9.006;2022-12-05T02:58:36;35.59;34.34;36.75;;
41704;Laerm;861;48.808;9.006;2022-12-05T03:01:07;35.58;34.38;36.84;;
41704;Laerm;861;48.808;9.006;2022-12-05T03:03:36;35.56;34.20;38.85;;
41704;Laerm;861;48.808;9.006;2022-12-05T03:06:18;35.60;34.36;36.93;;
41704;Laerm;861;48.808;9.006;2022-12-05T03:09:07;35.59;34.43;39.25;;
41704;Laerm;861;48.808;9.006;2022-12-05T03:12:19;35.59;34.14;44.99;;
41704;Laerm;861;48.808;9.006;2022-12-05T03:15:06;35.59;34.34;37.05;;
41704;Laerm;861;48.808;9.006;2022-12-05T03:18:27;35.61;34.45;36.90;;
41704;Laerm;861;48.808;9.006;2022-12-05T03:24:10;35.55;34.40;36.78;;
41704;Laerm;861;48.808;9.006;2022-12-05T03:30:03;35.46;34.31;36.62;;
41704;Laerm;861;48.808;9.006;2022-12-05T03:33:00;35.49;34.10;38.54;;
41704;Laerm;861;48.808;9.006;2022-12-05T03:36:12;35.50;34.21;36.74;;
41704;Laerm;861;48.808;9.006;2022-12-05T03:39:22;35.52;34.13;37.53;;
41704;Laerm;861;48.808;9.006;2022-12-05T03:42:11;35.44;34.26;36.68;;
41704;Laerm;861;48.808;9.006;2022-12-05T03:45:11;35.42;34.23;36.50;;
41704;Laerm;861;48.808;9.006;2022-12-05T03:48:31;35.47;34.08;36.76;;
41704;Laerm;861;48.808;9.006;2022-12-05T03:51:07;35.52;34.36;36.64;;
41704;Laerm;861;48.808;9.006;2022-12-05T03:54:02;35.48;34.26;36.56;;
41704;Laerm;861;48.808;9.006;2022-12-05T03:57:28;35.52;34.10;36.92;;
41704;Laerm;861;48.808;9.006;2022-12-05T04:00:11;35.53;34.13;36.85;;
41704;Laerm;861;48.808;9.006;2022-12-05T04:03:27;35.50;34.13;36.83;;
41704;Laerm;861;48.808;9.006;2022-12-05T04:06:32;35.57;34.29;36.76;;
41704;Laerm;861;48.808;9.006;2022-12-05T04:09:15;35.53;34.20;36.72;;
41704;Laerm;861;48.808;9.006;2022-12-05T04:11:58;35.52;34.23;36.65;;
41704;Laerm;861;48.808;9.006;2022-12-05T04:14:45;35.57;34.35;36.97;;
41704;Laerm;861;48.808;9.006;2022-12-05T04:20:40;35.42;34.09;36.71;;
41704;Laerm;861;48.808;9.006;2022-12-05T04:23:28;35.41;34.04;42.59;;
41704;Laerm;861;48.808;9.006;2022-12-05T04:26:30;35.40;34.26;37.52;;
41704;Laerm;861;48.808;9.006;2022-12-05T04:29:33;35.34;34.07;36.60;;
41704;Laerm;861;48.808;9.006;2022-12-05T04:32:12;35.31;34.05;36.54;;
41704;Laerm;861;48.808;9.006;2022-12-05T04:34:54;35.31;33.95;36.71;;
41704;Laerm;861;48.808;9.006;2022-12-05T04:37:30;35.43;34.22;39.03;;
41704;Laerm;861;48.808;9.006;2022-12-05T04:40:26;35.40;34.11;36.59;;
41704;Laerm;861;48.808;9.006;2022-12-05T04:43:00;35.41;34.21;36.54;;
41704;Laerm;861;48.808;9.006;2022-12-05T04:45:33;35.47;34.38;36.77;;
41704;Laerm;861;48.808;9.006;2022-12-05T04:48:15;35.52;34.21;36.62;;
41704;Laerm;861;48.808;9.006;2022-12-05T04:50:49;35.59;34.13;37.02;;
41704;Laerm;861;48.808;9.006;2022-12-05T04:53:26;35.53;34.34;36.65;;
41704;Laerm;861;48.808;9.006;2022-12-05T04:56:01;35.56;34.29;36.82;;
41704;Laerm;861;48.808;9.006;2022-12-05T04:58:31;35.54;34.32;36.71;;
41704;Laerm;861;48.808;9.006;2022-12-05T05:01:33;35.56;34.47;36.89;;
41704;Laerm;861;48.808;9.006;2022-12-05T05:04:21;35.56;34.33;36.69;;
41704;Laerm;861;48.808;9.006;2022-12-05T05:06:50;35.53;34.27;36.93;;
41704;Laerm;861;48.808;9.006;2022-12-05T05:09:16;35.50;34.27;36.82;;
41704;Laerm;861;48.808;9.006;2022-12-05T05:11:42;35.48;34.10;37.46;;
41704;Laerm;861;48.808;9.006;2022-12-05T05:14:09;35.50;34.25;36.58;;
41704;Laerm;861;48.808;9.006;2022-12-05T05:16:41;35.53;34.28;36.92;;
41704;Laerm;861;48.808;9.006;2022-12-05T05:19:10;35.51;34.25;36.68;;
41704;Laerm;861;48.808;9.006;2022-12-05T05:21:41;35.44;34.12;36.60;;
41704;Laerm;861;48.808;9.006;2022-12-05T05:24:11;35.48;34.29;36.52;;
41704;Laerm;861;48.808;9.006;2022-12-05T05:26:45;35.47;34.21;36.58;;
41704;Laerm;861;48.808;9.006;2022-12-05T05:29:13;35.58;34.39;37.01;;
41704;Laerm;861;48.808;9.006;2022-12-05T05:31:41;35.64;34.25;36.88;;
41704;Laerm;861;48.808;9.006;2022-12-05T05:34:10;35.73;34.33;37.08;;
41704;Laerm;861;48.808;9.006;2022-12-05T05:36:38;35.70;34.53;36.90;;
41704;Laerm;861;48.808;9.006;2022-12-05T05:39:13;35.68;34.36;36.76;;
41704;Laerm;861;48.808;9.006;2022-12-05T05:41:41;35.76;34.52;36.89;;
41704;Laerm;861;48.808;9.006;2022-12-05T05:44:07;35.78;34.38;36.91;;
41704;Laerm;861;48.808;9.006;2022-12-05T05:46:37;35.82;34.41;37.19;;
41704;Laerm;861;48.808;9.006;2022-12-05T05:49:04;35.84;34.61;37.25;;
41704;Laerm;861;48.808;9.006;2022-12-05T05:51:32;35.83;34.36;37.22;;
41704;Laerm;861;48.808;9.006;2022-12-05T05:53:59;35.85;34.68;41.07;;
41704;Laerm;861;48.808;9.006;2022-12-05T05:56:27;35.82;34.65;37.07;;
41704;Laerm;861;48.808;9.006;2022-12-05T05:59:00;35.77;34.62;36.85;;
41704;Laerm;861;48.808;9.006;2022-12-05T06:01:29;35.81;34.58;37.09;;
41704;Laerm;861;48.808;9.006;2022-12-05T06:03:55;35.85;34.80;36.92;;
41704;Laerm;861;48.808;9.006;2022-12-05T06:06:23;35.79;34.51;37.10;;
41704;Laerm;861;48.808;9.006;2022-12-05T06:08:50;35.75;34.54;36.81;;
41704;Laerm;861;48.808;9.006;2022-12-05T06:11:25;35.70;34.59;36.86;;
41704;Laerm;861;48.808;9.006;2022-12-05T06:13:59;35.68;34.37;40.54;;
41704;Laerm;861;48.808;9.006;2022-12-05T06:16:30;35.63;34.20;37.06;;
41704;Laerm;861;48.808;9.006;2022-12-05T06:18:57;35.52;34.31;36.67;;
41704;Laerm;861;48.808;9.006;2022-12-05T06:21:24;35.47;34.28;36.51;;
41704;Laerm;861;48.808;9.006;2022-12-05T06:23:51;35.42;34.23;36.41;;
41704;Laerm;861;48.808;9.006;2022-12-05T06:26:21;35.37;33.96;36.67;;
41704;Laerm;861;48.808;9.006;2022-12-05T06:28:48;35.30;34.06;36.38;;
41704;Laerm;861;48.808;9.006;2022-12-05T06:31:22;35.24;33.91;36.43;;
41704;Laerm;861;48.808;9.006;2022-12-05T06:33:49;35.19;33.98;36.60;;
41704;Laerm;861;48.808;9.006;2022-12-05T06:36:20;35.19;33.93;36.37;;
41704;Laerm;861;48.808;9.006;2022-12-05T06:38:48;35.21;33.86;36.45;;
41704;Laerm;861;48.808;9.006;2022-12-05T06:41:19;35.26;34.01;36.41;;
41704;Laerm;861;48.808;9.006;2022-12-05T06:43:46;35.32;34.13;36.44;;
41704;Laerm;861;48.808;9.006;2022-12-05T06:46:15;35.38;33.98;36.56;;
41704;Laerm;861;48.808;9.006;2022-12-05T06:48:41;35.44;34.28;36.57;;
41704;Laerm;861;48.808;9.006;2022-12-05T06:51:15;35.50;34.36;36.66;;
41704;Laerm;861;48.808;9.006;2022-12-05T06:53:43;35.52;34.18;36.73;;
41704;Laerm;861;48.808;9.006;2022-12-05T06:56:17;35.52;34.38;36.89;;
41704;Laerm;861;48.808;9.006;2022-12-05T06:58:48;35.51;34.26;36.69;;
41704;Laerm;861;48.808;9.006;2022-12-05T07:01:21;35.55;34.36;36.76;;
41704;Laerm;861;48.808;9.006;2022-12-05T07:04:20;35.57;34.30;36.79;;
41704;Laerm;861;48.808;9.006;2022-12-05T07:06:54;35.56;34.14;36.88;;
41704;Laerm;861;48.808;9.006;2022-12-05T07:09:25;35.58;34.37;36.73;;
41704;Laerm;861;48.808;9.006;2022-12-05T07:12:13;35.65;34.28;36.73;;
41704;Laerm;861;48.808;9.006;2022-12-05T07:14:41;35.66;34.39;37.11;;
41704;Laerm;861;48.808;9.006;2022-12-05T07:17:09;35.64;34.32;36.82;;
41704;Laerm;861;48.808;9.006;2022-12-05T07:19:36;35.68;34.40;36.88;;
41704;Laerm;861;48.808;9.006;2022-12-05T07:22:03;35.72;34.35;36.81;;
41704;Laerm;861;48.808;9.006;2022-12-05T07:24:29;35.72;34.51;36.90;;
41704;Laerm;861;48.808;9.006;2022-12-05T07:26:56;35.73;34.50;37.15;;
41704;Laerm;861;48.808;9.006;2022-12-05T07:29:22;35.63;34.28;36.79;;
41704;Laerm;861;48.808;9.006;2022-12-05T07:31:48;35.55;34.36;36.67;;
41704;Laerm;861;48.808;9.006;2022-12-05T07:34:14;35.50;34.24;36.64;;
41704;Laerm;861;48.808;9.006;2022-12-05T07:36:40;35.51;34.31;36.67;;
41704;Laerm;861;48.808;9.006;2022-12-05T07:39:08;35.56;34.44;36.70;;
41704;Laerm;861;48.808;9.006;2022-12-05T07:41:34;35.53;34.14;36.74;;
41704;Laerm;861;48.808;9.006;2022-12-05T07:44:00;35.64;34.30;36.83;;
41704;Laerm;861;48.808;9.006;2022-12-05T07:46:28;35.80;34.51;36.89;;
41704;Laerm;861;48.808;9.006;2022-12-05T07:48:54;35.88;34.50;38.58;;
41704;Laerm;861;48.808;9.006;2022-12-05T07:51:22;35.84;34.57;37.01;;
41704;Laerm;861;48.808;9.006;2022-12-05T07:53:49;35.64;34.31;36.81;;
41704;Laerm;861;48.808;9.006;2022-12-05T07:56:18;35.54;34.10;36.81;;
41704;Laerm;861;48.808;9.006;2022-12-05T07:58:49;35.48;34.22;36.83;;
41704;Laerm;861;48.808;9.006;2022-12-05T08:01:27;35.43;34.05;36.73;;
41704;Laerm;861;48.808;9.006;2022-12-05T08:03:58;35.28;34.11;36.39;;
41704;Laerm;861;48.808;9.006;2022-12-05T08:06:30;35.18;33.69;36.33;;
41704;Laerm;861;48.808;9.006;2022-12-05T08:08:58;35.12;33.67;36.28;;
41704;Laerm;861;48.808;9.006;2022-12-05T08:11:32;35.09;33.58;36.39;;
41704;Laerm;861;48.808;9.006;2022-12-05T08:14:04;35.12;33.74;36.33;;
41704;Laerm;861;48.808;9.006;2022-12-05T08:16:32;35.09;33.88;36.30;;
41704;Laerm;861;48.808;9.006;2022-12-05T08:19:09;35.05;33.75;36.31;;
41704;Laerm;861;48.808;9.006;2022-12-05T08:21:36;35.02;33.83;36.17;;
41704;Laerm;861;48.808;9.006;2022-12-05T08:24:06;35.02;33.53;36.16;;
41704;Laerm;861;48.808;9.006;2022-12-05T08:26:36;35.06;33.81;36.13;;
41704;Laerm;861;48.808;9.006;2022-12-05T08:29:13;35.17;33.94;36.26;;
41704;Laerm;861;48.808;9.006;2022-12-05T08:31:48;35.20;33.88;36.74;;
41704;Laerm;861;48.808;9.006;2022-12-05T08:34:19;35.25;34.13;36.34;;
41704;Laerm;861;48.808;9.006;2022-12-05T08:36:46;35.25;33.78;36.32;;
41704;Laerm;861;48.808;9.006;2022-12-05T08:39:18;35.34;34.13;36.70;;
41704;Laerm;861;48.808;9.006;2022-12-05T08:41:47;35.40;34.04;36.68;;
41704;Laerm;861;48.808;9.006;2022-12-05T08:44:15;35.39;34.13;36.48;;
41704;Laerm;861;48.808;9.006;2022-12-05T08:46:48;35.38;33.92;36.60;;
41704;Laerm;861;48.808;9.006;2022-12-05T08:49:16;35.37;33.97;36.61;;
41704;Laerm;861;48.808;9.006;2022-12-05T08:51:43;35.43;34.17;36.61;;
41704;Laerm;861;48.808;9.006;2022-12-05T08:54:11;35.53;34.40;36.76;;
41704;Laerm;861;48.808;9.006;2022-12-05T08:56:38;35.59;34.40;36.73;;
41704;Laerm;861;48.808;9.006;2022-12-05T08:59:05;35.65;34.16;36.78;;
41704;Laerm;861;48.808;9.006;2022-12-05T09:01:34;35.71;34.61;36.79;;
41704;Laerm;861;48.808;9.006;2022-12-05T09:04:05;35.64;34.24;36.88;;
41704;Laerm;861;48.808;9.006;2022-12-05T09:06:34;35.63;34.39;36.75;;
41704;Laerm;861;48.808;9.006;2022-12-05T09:09:08;35.71;34.47;36.87;;
41704;Laerm;861;48.808;9.006;2022-12-05T09:11:43;35.72;34.47;38.97;;
41704;Laerm;861;48.808;9.006;2022-12-05T09:14:12;35.72;34.52;38.71;;
41704;Laerm;861;48.808;9.006;2022-12-05T09:16:39;35.71;34.25;38.41;;
41704;Laerm;861;48.808;9.006;2022-12-05T09:19:18;35.78;34.27;37.96;;
41704;Laerm;861;48.808;9.006;2022-12-05T09:21:49;35.74;34.33;36.96;;
41704;Laerm;861;48.808;9.006;2022-12-05T09:24:16;35.84;34.60;36.95;;
41704;Laerm;861;48.808;9.006;2022-12-05T09:26:42;35.84;34.54;37.84;;
41704;Laerm;861;48.808;9.006;2022-12-05T09:29:12;35.80;34.39;37.04;;
41704;Laerm;861;48.808;9.006;2022-12-05T09:31:39;35.86;34.47;36.90;;
41704;Laerm;861;48.808;9.006;2022-12-05T09:34:08;35.84;34.30;37.12;;
41704;Laerm;861;48.808;9.006;2022-12-05T09:36:34;35.81;34.71;37.09;;
41704;Laerm;861;48.808;9.006;2022-12-05T09:39:06;35.82;34.36;37.31;;
41704;Laerm;861;48.808;9.006;2022-12-05T09:42:39;35.85;34.64;37.12;;
41704;Laerm;861;48.808;9.006;2022-12-05T09:45:47;35.83;34.64;37.01;;
41704;Laerm;861;48.808;9.006;2022-12-05T09:48:23;35.91;34.65;37.67;;
41704;Laerm;861;48.808;9.006;2022-12-05T09:51:02;35.98;34.77;37.20;;
41704;Laerm;861;48.808;9.006;2022-12-05T09:53:40;35.93;34.44;37.17;;
41704;Laerm;861;48.808;9.006;2022-12-05T09:58:52;36.07;34.56;37.67;;
41704;Laerm;861;48.808;9.006;2022-12-05T10:01:48;36.14;34.72;37.41;;
41704;Laerm;861;48.808;9.006;2022-12-05T10:05:22;36.16;34.56;37.39;;
41704;Laerm;861;48.808;9.006;2022-12-05T10:08:25;36.14;34.99;37.33;;
41704;Laerm;861;48.808;9.006;2022-12-05T10:11:01;36.26;34.98;37.36;;
41704;Laerm;861;48.808;9.006;2022-12-05T10:17:03;36.28;34.98;37.76;;
41704;Laerm;861;48.808;9.006;2022-12-05T10:19:48;36.34;34.97;37.49;;
41704;Laerm;861;48.808;9.006;2022-12-05T10:22:56;36.40;35.05;39.76;;
41704;Laerm;861;48.808;9.006;2022-12-05T10:25:31;36.33;34.95;38.20;;
41704;Laerm;861;48.808;9.006;2022-12-05T10:28:16;36.39;34.97;37.65;;
41704;Laerm;861;48.808;9.006;2022-12-05T10:30:53;36.42;35.10;37.57;;
41704;Laerm;861;48.808;9.006;2022-12-05T10:33:30;36.50;35.22;38.21;;
41704;Laerm;861;48.808;9.006;2022-12-05T10:35:58;36.48;35.14;37.63;;
41704;Laerm;861;48.808;9.006;2022-12-05T10:38:31;36.43;34.81;37.70;;
41704;Laerm;861;48.808;9.006;2022-12-05T10:41:08;36.49;35.06;38.38;;
41704;Laerm;861;48.808;9.006;2022-12-05T10:43:41;36.56;35.26;37.76;;
41704;Laerm;861;48.808;9.006;2022-12-05T10:46:12;36.58;35.26;40.79;;
41704;Laerm;861;48.808;9.006;2022-12-05T10:48:41;36.60;35.28;38.52;;
41704;Laerm;861;48.808;9.006;2022-12-05T10:51:24;36.59;35.34;37.70;;
41704;Laerm;861;48.808;9.006;2022-12-05T10:53:53;36.57;35.15;37.79;;
41704;Laerm;861;48.808;9.006;2022-12-05T10:56:46;36.58;35.27;37.95;;
41704;Laerm;861;48.808;9.006;2022-12-05T10:59:23;36.57;35.26;37.76;;
41704;Laerm;861;48.808;9.006;2022-12-05T11:01:58;36.57;35.11;37.89;;
41704;Laerm;861;48.808;9.006;2022-12-05T11:04:44;36.55;35.18;37.80;;
41704;Laerm;861;48.808;9.006;2022-12-05T11:07:35;36.55;35.14;37.76;;
41704;Laerm;861;48.808;9.006;2022-12-05T11:10:36;36.56;35.13;37.82;;
41704;Laerm;861;48.808;9.006;2022-12-05T11:13:25;36.56;35.15;43.25;;
41704;Laerm;861;48.808;9.006;2022-12-05T11:15:51;36.55;35.35;37.70;;
41704;Laerm;861;48.808;9.006;2022-12-05T11:18:33;36.55;35.34;37.98;;
41704;Laerm;861;48.808;9.006;2022-12-05T11:21:14;36.54;35.24;37.80;;
41704;Laerm;861;48.808;9.006;2022-12-05T11:23:43;36.55;35.39;37.80;;
41704;Laerm;861;48.808;9.006;2022-12-05T11:26:36;36.55;35.23;37.83;;
41704;Laerm;861;48.808;9.006;2022-12-05T11:29:31;36.55;35.25;37.83;;
41704;Laerm;861;48.808;9.006;2022-12-05T11:31:58;36.52;35.09;37.74;;
41704;Laerm;861;48.808;9.006;2022-12-05T11:34:49;36.51;34.88;37.73;;
41704;Laerm;861;48.808;9.006;2022-12-05T11:37:42;36.50;35.16;38.00;;
41704;Laerm;861;48.808;9.006;2022-12-05T11:45:00;36.60;35.26;37.87;;
41704;Laerm;861;48.808;9.006;2022-12-05T12:04:49;36.87;35.62;38.04;;
41704;Laerm;861;48.808;9.006;2022-12-05T12:07:54;36.85;35.53;38.06;;
41704;Laerm;861;48.808;9.006;2022-12-05T12:14:18;37.06;35.73;38.21;;
41704;Laerm;861;48.808;9.006;2022-12-05T12:20:54;36.90;35.56;38.15;;
41704;Laerm;861;48.808;9.006;2022-12-05T12:24:01;36.76;35.53;38.00;;
41704;Laerm;861;48.808;9.006;2022-12-05T12:27:11;36.75;35.45;37.91;;
41704;Laerm;861;48.808;9.006;2022-12-05T12:30:23;36.69;35.34;37.88;;
41704;Laerm;861;48.808;9.006;2022-12-05T12:37:36;36.59;35.22;37.83;;
41704;Laerm;861;48.808;9.006;2022-12-05T12:50:02;36.58;35.32;37.80;;
41704;Laerm;861;48.808;9.006;2022-12-05T12:53:40;36.58;35.26;37.79;;
41704;Laerm;861;48.808;9.006;2022-12-05T12:56:39;36.62;35.30;37.82;;
41704;Laerm;861;48.808;9.006;2022-12-05T13:03:16;36.66;35.39;37.83;;
41704;Laerm;861;48.808;9.006;2022-12-05T13:06:12;36.65;35.40;37.74;;
41704;Laerm;861;48.808;9.006;2022-12-05T13:08:56;36.60;35.28;37.67;;
41704;Laerm;861;48.808;9.006;2022-12-05T13:11:34;36.59;35.05;37.89;;
41704;Laerm;861;48.808;9.006;2022-12-05T13:14:11;36.52;35.15;37.76;;
41704;Laerm;861;48.808;9.006;2022-12-05T13:16:50;36.51;35.17;37.59;;
41704;Laerm;861;48.808;9.006;2022-12-05T13:19:48;36.53;35.27;37.75;;
41704;Laerm;861;48.808;9.006;2022-12-05T13:22:23;36.44;35.00;37.76;;
41704;Laerm;861;48.808;9.006;2022-12-05T13:24:54;36.47;34.81;37.60;;
41704;Laerm;861;48.808;9.006;2022-12-05T13:27:26;36.41;35.15;37.56;;
41704;Laerm;861;48.808;9.006;2022-12-05T13:30:01;36.44;35.24;37.60;;
41704;Laerm;861;48.808;9.006;2022-12-05T13:32:40;36.49;35.06;37.93;;
41704;Laerm;861;48.808;9.006;2022-12-05T13:35:32;36.51;35.17;37.74;;
41704;Laerm;861;48.808;9.006;2022-12-05T13:38:33;36.53;34.97;37.82;;
41704;Laerm;861;48.808;9.006;2022-12-05T13:41:20;36.50;35.30;37.88;;
41704;Laerm;861;48.808;9.006;2022-12-05T13:44:06;36.55;35.14;37.72;;
41704;Laerm;861;48.808;9.006;2022-12-05T13:46:42;36.58;35.23;37.89;;
41704;Laerm;861;48.808;9.006;2022-12-05T13:49:45;36.54;35.07;37.83;;
41704;Laerm;861;48.808;9.006;2022-12-05T13:52:26;36.52;35.36;37.64;;
41704;Laerm;861;48.808;9.006;2022-12-05T13:57:55;36.56;35.25;37.72;;
41704;Laerm;861;48.808;9.006;2022-12-05T14:06:06;36.62;35.19;37.92;;
41704;Laerm;861;48.808;9.006;2022-12-05T14:23:23;36.53;34.98;37.73;;
41704;Laerm;861;48.808;9.006;2022-12-05T14:26:43;36.47;35.14;37.61;;
41704;Laerm;861;48.808;9.006;2022-12-05T14:29:38;36.52;35.16;38.45;;
41704;Laerm;861;48.808;9.006;2022-12-05T14:32:37;36.48;35.26;37.74;;
41704;Laerm;861;48.808;9.006;2022-12-05T14:38:06;36.26;34.86;37.43;;
41704;Laerm;861;48.808;9.006;2022-12-05T14:40:47;36.36;35.01;51.09;;
41704;Laerm;861;48.808;9.006;2022-12-05T14:43:31;36.38;35.13;37.50;;
41704;Laerm;861;48.808;9.006;2022-12-05T14:46:21;36.41;34.91;37.71;;
41704;Laerm;861;48.808;9.006;2022-12-05T14:48:49;36.43;35.19;37.57;;
41704;Laerm;861;48.808;9.006;2022-12-05T14:54:18;36.43;35.17;37.64;;
41704;Laerm;861;48.808;9.006;2022-12-05T14:57:08;36.43;35.08;37.52;;
41704;Laerm;861;48.808;9.006;2022-12-05T15:00:05;36.46;35.18;37.76;;
41704;Laerm;861;48.808;9.006;2022-12-05T15:02:45;36.43;34.97;37.76;;
41704;Laerm;861;48.808;9.006;2022-12-05T15:05:31;36.39;35.14;37.49;;
41704;Laerm;861;48.808;9.006;2022-12-05T15:08:03;36.38;35.16;37.50;;
41704;Laerm;861;48.808;9.006;2022-12-05T15:10:38;36.41;35.06;37.67;;
41704;Laerm;861;48.808;9.006;2022-12-05T15:13:20;36.39;34.57;37.65;;
41704;Laerm;861;48.808;9.006;2022-12-05T15:16:18;36.39;35.10;37.64;;
41704;Laerm;861;48.808;9.006;2022-12-05T15:18:59;36.34;34.60;37.59;;
41704;Laerm;861;48.808;9.006;2022-12-05T15:21:52;36.29;35.08;37.58;;
41704;Laerm;861;48.808;9.006;2022-12-05T15:24:22;36.28;34.89;37.41;;
41704;Laerm;861;48.808;9.006;2022-12-05T15:26:57;36.28;34.96;37.47;;
41704;Laerm;861;48.808;9.006;2022-12-05T15:29:29;36.25;34.82;37.46;;
41704;Laerm;861;48.808;9.006;2022-12-05T15:32:26;36.22;35.01;37.40;;
41704;Laerm;861;48.808;9.006;2022-12-05T15:35:10;36.23;34.97;37.60;;
41704;Laerm;861;48.808;9.006;2022-12-05T15:38:29;36.25;34.74;37.70;;
41704;Laerm;861;48.808;9.006;2022-12-05T15:40:57;36.21;34.91;37.42;;
41704;Laerm;861;48.808;9.006;2022-12-05T15:43:33;36.22;34.96;37.47;;
41704;Laerm;861;48.808;9.006;2022-12-05T15:46:25;36.24;34.93;37.81;;
41704;Laerm;861;48.808;9.006;2022-12-05T15:48:58;36.18;34.88;39.84;;
41704;Laerm;861;48.808;9.006;2022-12-05T15:51:38;36.14;34.73;37.48;;
41704;Laerm;861;48.808;9.006;2022-12-05T15:54:19;36.05;34.75;37.83;;
41704;Laerm;861;48.808;9.006;2022-12-05T15:57:25;35.98;34.85;37.19;;
41704;Laerm;861;48.808;9.006;2022-12-05T16:00:12;35.96;34.88;37.00;;
41704;Laerm;861;48.808;9.006;2022-12-05T16:03:04;35.95;34.78;38.07;;
41704;Laerm;861;48.808;9.006;2022-12-05T16:05:51;35.93;34.68;37.10;;
41704;Laerm;861;48.808;9.006;2022-12-05T16:08:22;35.93;34.62;37.89;;
41704;Laerm;861;48.808;9.006;2022-12-05T16:10:50;35.88;34.62;37.41;;
41704;Laerm;861;48.808;9.006;2022-12-05T16:13:25;35.92;34.62;37.45;;
41704;Laerm;861;48.808;9.006;2022-12-05T16:15:54;36.02;34.79;38.40;;
41704;Laerm;861;48.808;9.006;2022-12-05T16:18:31;36.06;34.87;37.24;;
41704;Laerm;861;48.808;9.006;2022-12-05T16:20:58;36.05;34.50;37.12;;
41704;Laerm;861;48.808;9.006;2022-12-05T16:23:36;36.02;34.84;37.21;;
41704;Laerm;861;48.808;9.006;2022-12-05T16:26:24;36.03;34.76;37.24;;
41704;Laerm;861;48.808;9.006;2022-12-05T16:28:59;36.08;34.80;37.38;;
41704;Laerm;861;48.808;9.006;2022-12-05T16:31:32;36.13;34.89;37.25;;
41704;Laerm;861;48.808;9.006;2022-12-05T16:34:14;36.13;34.65;37.19;;
41704;Laerm;861;48.808;9.006;2022-12-05T16:36:52;36.12;34.97;37.40;;
41704;Laerm;861;48.808;9.006;2022-12-05T16:39:21;36.14;34.68;37.45;;
41704;Laerm;861;48.808;9.006;2022-12-05T16:41:50;36.17;34.66;37.38;;
41704;Laerm;861;48.808;9.006;2022-12-05T16:47:54;36.21;34.90;37.36;;
41704;Laerm;861;48.808;9.006;2022-12-05T16:50:34;36.20;35.02;37.53;;
41704;Laerm;861;48.808;9.006;2022-12-05T16:53:31;36.21;34.96;37.57;;
41704;Laerm;861;48.808;9.006;2022-12-05T16:55:59;36.22;35.03;37.63;;
41704;Laerm;861;48.808;9.006;2022-12-05T16:58:30;36.24;34.91;37.59;;
41704;Laerm;861;48.808;9.006;2022-12-05T17:01:06;36.23;34.69;37.44;;
41704;Laerm;861;48.808;9.006;2022-12-05T17:03:34;36.24;34.92;37.54;;